createdAt,value
2023-06-14T00:01:15.945Z,17.37
2023-06-14T00:03:42.522Z,17.40
2023-06-14T00:06:09.272Z,17.38
2023-06-14T00:08:36.146Z,17.35
2023-06-14T00:11:02.730Z,17.31
2023-06-14T00:13:29.302Z,17.30
2023-06-14T00:15:56.235Z,17.26
2023-06-14T00:18:25.359Z,17.23
2023-06-14T00:20:52.954Z,17.22
2023-06-14T00:23:19.692Z,17.13
2023-06-14T00:25:46.499Z,17.06
2023-06-14T00:28:13.176Z,17.01
2023-06-14T00:30:40.125Z,16.96
2023-06-14T00:33:06.825Z,16.87
2023-06-14T00:35:33.458Z,16.83
2023-06-14T00:38:00.823Z,16.79
2023-06-14T00:40:27.523Z,16.75
2023-06-14T00:42:54.192Z,16.74
2023-06-14T00:45:20.763Z,16.69
2023-06-14T00:47:48.897Z,16.63
2023-06-14T00:50:15.609Z,16.56
2023-06-14T00:52:42.551Z,16.49
2023-06-14T00:55:09.653Z,16.38
2023-06-14T00:57:38.843Z,16.27
2023-06-14T01:00:10.071Z,16.28
2023-06-14T01:02:38.805Z,16.19
2023-06-14T01:05:11.975Z,16.12
2023-06-14T01:07:50.248Z,16.03
2023-06-14T01:10:19.494Z,15.95
2023-06-14T01:12:54.045Z,15.92
2023-06-14T01:15:22.272Z,15.86
2023-06-14T01:17:52.857Z,15.80
2023-06-14T01:20:22.330Z,15.77
2023-06-14T01:22:52.874Z,15.65
2023-06-14T01:25:27.406Z,15.59
2023-06-14T01:28:00.826Z,15.54
2023-06-14T01:30:29.231Z,15.46
2023-06-14T01:32:57.223Z,15.42
2023-06-14T01:35:24.132Z,15.19
2023-06-14T01:37:53.131Z,15.31
2023-06-14T01:40:22.278Z,15.27
2023-06-14T01:42:51.238Z,15.13
2023-06-14T01:45:19.575Z,15.04
2023-06-14T01:47:48.020Z,14.93
2023-06-14T01:50:15.017Z,14.74
2023-06-14T01:52:41.884Z,14.64
2023-06-14T01:55:09.195Z,14.49
2023-06-14T01:57:36.028Z,14.42
2023-06-14T02:00:04.763Z,14.31
2023-06-14T02:02:31.400Z,14.23
2023-06-14T02:04:58.512Z,14.16
2023-06-14T02:07:25.495Z,14.14
2023-06-14T02:09:52.234Z,14.08
2023-06-14T02:12:19.013Z,13.93
2023-06-14T02:14:45.891Z,13.99
2023-06-14T02:17:12.862Z,13.94
2023-06-14T02:19:39.949Z,13.94
2023-06-14T02:22:06.654Z,13.87
2023-06-14T02:24:33.424Z,13.76
2023-06-14T02:27:00.206Z,13.77
2023-06-14T02:29:26.926Z,13.76
2023-06-14T02:31:53.981Z,13.68
2023-06-14T02:34:21.705Z,13.66
2023-06-14T02:36:49.175Z,13.57
2023-06-14T02:39:15.800Z,13.55
2023-06-14T02:41:42.471Z,13.47
2023-06-14T02:44:13.074Z,13.44
2023-06-14T02:46:39.802Z,13.38
2023-06-14T02:49:06.470Z,13.37
2023-06-14T02:51:33.187Z,13.35
2023-06-14T02:53:59.814Z,13.29
2023-06-14T02:56:27.440Z,13.29
2023-06-14T02:58:54.378Z,13.26
2023-06-14T03:01:22.002Z,13.22
2023-06-14T03:03:48.901Z,13.17
2023-06-14T03:06:17.979Z,13.10
2023-06-14T03:08:45.169Z,13.06
2023-06-14T03:11:11.789Z,12.90
2023-06-14T03:13:39.768Z,12.98
2023-06-14T03:16:06.725Z,12.83
2023-06-14T03:18:36.580Z,12.86
2023-06-14T03:21:04.085Z,12.88
2023-06-14T03:23:31.396Z,12.83
2023-06-14T03:25:58.285Z,12.82
2023-06-14T03:28:27.725Z,12.77
2023-06-14T03:30:54.569Z,12.74
2023-06-14T03:33:22.112Z,12.77
2023-06-14T03:35:48.982Z,12.77
2023-06-14T03:38:16.191Z,12.68
2023-06-14T03:40:43.129Z,12.81
2023-06-14T03:43:09.786Z,12.79
2023-06-14T03:45:36.407Z,12.63
2023-06-14T03:48:04.137Z,12.59
2023-06-14T03:50:30.898Z,12.76
2023-06-14T03:52:57.946Z,12.73
2023-06-14T03:57:55.968Z,12.77
2023-06-14T04:00:24.321Z,12.79
2023-06-14T04:02:51.175Z,12.71
2023-06-14T04:05:20.247Z,12.83
2023-06-14T04:07:49.582Z,12.82
2023-06-14T04:10:17.624Z,12.86
2023-06-14T04:12:44.510Z,12.88
2023-06-14T04:15:20.906Z,12.94
2023-06-14T04:17:48.873Z,12.95
2023-06-14T04:20:15.678Z,12.97
2023-06-14T04:22:44.643Z,13.05
2023-06-14T04:25:11.460Z,13.12
2023-06-14T04:27:39.559Z,12.99
2023-06-14T04:30:07.133Z,13.22
2023-06-14T04:32:35.076Z,13.12
2023-06-14T04:35:05.058Z,13.23
2023-06-14T04:37:31.874Z,13.34
2023-06-14T04:40:00.948Z,13.50
2023-06-14T04:42:32.232Z,13.56
2023-06-14T04:44:59.794Z,13.71
2023-06-14T04:47:30.933Z,13.77
2023-06-14T04:50:01.685Z,13.85
2023-06-14T04:52:30.808Z,13.98
2023-06-14T04:54:57.897Z,14.06
2023-06-14T04:57:26.676Z,14.29
2023-06-14T04:59:59.194Z,14.39
2023-06-14T05:02:29.953Z,14.49
2023-06-14T05:04:58.324Z,14.77
2023-06-14T05:07:26.559Z,15.01
2023-06-14T05:09:55.568Z,15.29
2023-06-14T05:12:22.255Z,15.62
2023-06-14T05:14:48.917Z,15.84
2023-06-14T05:17:15.605Z,16.20
2023-06-14T05:19:42.279Z,16.57
2023-06-14T05:22:08.876Z,16.89
2023-06-14T05:24:35.682Z,17.21
2023-06-14T05:27:02.377Z,17.51
2023-06-14T05:29:31.447Z,17.76
2023-06-14T05:31:58.332Z,17.99
2023-06-14T05:34:25.152Z,18.18
2023-06-14T05:36:51.683Z,18.49
2023-06-14T05:39:18.401Z,18.77
2023-06-14T05:41:45.187Z,18.99
2023-06-14T05:44:11.949Z,19.38
2023-06-14T05:46:41.188Z,19.66
2023-06-14T05:49:08.090Z,19.88
2023-06-14T05:51:34.806Z,20.16
2023-06-14T05:54:01.578Z,20.13
2023-06-14T05:56:28.456Z,20.16
2023-06-14T05:58:55.151Z,20.09
2023-06-14T06:01:21.819Z,20.12
2023-06-14T06:03:49.059Z,19.98
2023-06-14T06:06:17.474Z,20.14
2023-06-14T06:08:44.665Z,20.23
2023-06-14T06:11:16.273Z,20.26
2023-06-14T06:13:43.024Z,20.50
2023-06-14T06:16:09.977Z,20.58
2023-06-14T06:18:36.800Z,20.81
2023-06-14T06:21:05.585Z,20.94
2023-06-14T06:23:32.307Z,21.24
2023-06-14T06:25:59.187Z,21.76
2023-06-14T06:28:25.811Z,22.01
2023-06-14T06:30:52.456Z,22.50
2023-06-14T06:33:19.235Z,22.75
2023-06-14T06:35:46.560Z,23.06
2023-06-14T06:38:13.209Z,23.21
2023-06-14T06:40:39.884Z,23.75
2023-06-14T06:43:06.426Z,23.84
2023-06-14T06:45:32.998Z,23.97
2023-06-14T06:47:59.602Z,24.33
2023-06-14T06:50:26.360Z,24.71
2023-06-14T06:52:54.032Z,24.88
2023-06-14T06:55:21.568Z,25.08
2023-06-14T06:57:48.521Z,25.41
2023-06-14T07:00:15.884Z,25.64
2023-06-14T07:02:42.965Z,25.70
2023-06-14T07:05:10.033Z,25.75
2023-06-14T07:07:36.712Z,25.80
2023-06-14T07:10:05.944Z,26.08
2023-06-14T07:12:35.079Z,26.07
2023-06-14T07:15:02.062Z,26.23
2023-06-14T07:17:28.805Z,26.45
2023-06-14T07:19:55.484Z,26.67
2023-06-14T07:22:22.147Z,26.79
2023-06-14T07:24:48.662Z,26.75
2023-06-14T07:27:15.869Z,26.80
2023-06-14T07:29:42.631Z,27.02
2023-06-14T07:32:12.331Z,27.16
2023-06-14T07:34:38.920Z,27.31
2023-06-14T07:37:05.682Z,27.31
2023-06-14T07:39:32.289Z,27.36
2023-06-14T07:41:58.862Z,27.23
2023-06-14T07:44:25.735Z,27.31
2023-06-14T07:46:52.513Z,27.78
2023-06-14T07:49:19.095Z,27.83
2023-06-14T07:51:46.252Z,27.92
2023-06-14T07:54:12.895Z,28.49
2023-06-14T07:56:39.392Z,28.69
2023-06-14T07:59:07.074Z,28.98
2023-06-14T08:01:34.395Z,28.88
2023-06-14T08:04:01.040Z,28.72
2023-06-14T08:06:28.210Z,28.46
2023-06-14T08:08:54.865Z,28.63
2023-06-14T08:11:22.102Z,28.58
2023-06-14T08:13:48.749Z,28.82
2023-06-14T08:16:15.674Z,29.34
2023-06-14T08:18:42.272Z,29.41
2023-06-14T08:21:09.606Z,29.49
2023-06-14T08:23:37.138Z,29.76
2023-06-14T08:26:05.231Z,29.78
2023-06-14T08:28:31.833Z,30.16
2023-06-14T08:30:58.413Z,29.97
2023-06-14T08:33:25.155Z,30.40
2023-06-14T08:35:51.956Z,30.51
2023-06-14T08:38:18.966Z,30.48
2023-06-14T08:40:49.022Z,30.55
2023-06-14T08:43:16.079Z,30.84
2023-06-14T08:45:42.779Z,30.50
2023-06-14T08:48:10.407Z,30.57
2023-06-14T08:50:40.926Z,30.62
2023-06-14T08:53:11.607Z,30.35
2023-06-14T08:55:43.470Z,30.24
2023-06-14T08:58:10.670Z,30.38
2023-06-14T09:00:39.871Z,30.32
2023-06-14T09:03:07.018Z,29.75
2023-06-14T09:05:33.732Z,29.90
2023-06-14T09:08:04.163Z,29.78
2023-06-14T09:10:34.601Z,30.25
2023-06-14T09:13:02.674Z,29.87
2023-06-14T09:15:30.947Z,30.21
2023-06-14T09:17:57.681Z,30.39
2023-06-14T09:20:25.845Z,30.26
2023-06-14T09:22:52.926Z,30.30
2023-06-14T09:25:37.315Z,29.89
2023-06-14T09:28:08.122Z,29.78
2023-06-14T09:30:34.779Z,29.67
2023-06-14T09:33:02.337Z,29.74
2023-06-14T09:35:32.121Z,29.67
2023-06-14T09:37:59.012Z,29.80
2023-06-14T09:40:25.915Z,29.72
2023-06-14T09:42:53.770Z,29.79
2023-06-14T09:45:22.952Z,30.17
2023-06-14T09:48:06.116Z,29.98
2023-06-14T09:50:34.963Z,29.97
2023-06-14T09:53:08.257Z,30.22
2023-06-14T09:55:37.471Z,29.93
2023-06-14T09:58:08.817Z,30.02
2023-06-14T10:00:37.072Z,30.28
2023-06-14T10:03:31.590Z,30.38
2023-06-14T10:06:08.331Z,30.64
2023-06-14T10:08:38.230Z,30.43
2023-06-14T10:11:05.113Z,30.33
2023-06-14T10:13:34.749Z,30.57
2023-06-14T10:16:19.774Z,30.38
2023-06-14T10:18:50.631Z,30.47
2023-06-14T10:21:30.289Z,30.47
2023-06-14T10:23:59.503Z,30.80
2023-06-14T10:26:26.224Z,30.88
2023-06-14T10:29:08.858Z,30.68
2023-06-14T10:31:43.773Z,30.64
2023-06-14T10:34:11.048Z,31.01
2023-06-14T10:36:37.830Z,30.55
2023-06-14T10:39:19.179Z,30.47
2023-06-14T10:41:54.831Z,30.58
2023-06-14T10:44:21.349Z,30.52
2023-06-14T10:46:55.181Z,30.66
2023-06-14T10:49:44.374Z,30.75
2023-06-14T10:52:17.857Z,30.48
2023-06-14T10:55:07.326Z,30.74
2023-06-14T11:00:18.452Z,30.49
2023-06-14T11:03:16.338Z,30.86
2023-06-14T11:05:49.076Z,30.99
2023-06-14T11:08:40.972Z,31.37
2023-06-14T11:11:09.307Z,31.26
2023-06-14T11:13:39.673Z,31.10
2023-06-14T11:16:12.154Z,31.26
2023-06-14T11:18:38.935Z,30.96
2023-06-14T11:21:05.869Z,31.13
2023-06-14T11:23:32.469Z,31.26
2023-06-14T11:25:59.926Z,31.35
2023-06-14T11:28:41.498Z,31.11
2023-06-14T11:31:08.859Z,31.50
2023-06-14T11:33:35.639Z,31.41
2023-06-14T11:36:09.539Z,31.07
2023-06-14T11:38:38.400Z,30.80
2023-06-14T11:41:05.135Z,31.18
2023-06-14T11:43:34.674Z,31.03
2023-06-14T11:46:08.395Z,31.08
2023-06-14T11:48:40.835Z,30.79
2023-06-14T11:51:07.548Z,30.87
2023-06-14T11:53:35.096Z,31.02
2023-06-14T11:56:02.828Z,31.20
2023-06-14T11:58:30.578Z,31.11
2023-06-14T12:00:57.399Z,31.75
2023-06-14T12:03:26.650Z,31.71
2023-06-14T12:06:08.639Z,31.15
2023-06-14T12:08:41.303Z,30.97
2023-06-14T12:11:12.557Z,30.90
2023-06-14T12:13:41.633Z,30.76
2023-06-14T12:16:10.355Z,30.54
2023-06-14T12:18:38.923Z,30.79
2023-06-14T12:21:07.827Z,31.10
2023-06-14T12:23:45.381Z,31.22
2023-06-14T12:26:19.913Z,31.27
2023-06-14T12:28:47.909Z,30.89
2023-06-14T12:31:16.293Z,30.80
2023-06-14T12:33:43.815Z,30.84
2023-06-14T12:36:11.536Z,31.06
2023-06-14T12:38:38.736Z,31.23
2023-06-14T12:41:05.595Z,31.42
2023-06-14T12:43:32.476Z,31.23
2023-06-14T12:45:59.141Z,30.94
2023-06-14T12:48:25.976Z,30.95
2023-06-14T12:50:52.506Z,31.01
2023-06-14T12:53:19.109Z,30.66
2023-06-14T12:55:45.883Z,30.83
2023-06-14T12:58:15.374Z,30.77
2023-06-14T13:00:41.963Z,30.85
2023-06-14T13:03:08.702Z,30.80
2023-06-14T13:05:35.422Z,30.93
2023-06-14T13:08:02.012Z,30.95
2023-06-14T13:10:29.258Z,30.70
2023-06-14T13:12:55.952Z,30.17
2023-06-14T13:15:22.622Z,29.82
2023-06-14T13:17:49.907Z,29.92
2023-06-14T13:20:20.345Z,29.86
2023-06-14T13:22:47.774Z,29.79
2023-06-14T13:25:14.539Z,29.77
2023-06-14T13:27:41.198Z,29.73
2023-06-14T13:30:08.300Z,29.26
2023-06-14T13:32:34.960Z,29.27
2023-06-14T13:35:01.977Z,29.26
2023-06-14T13:37:28.937Z,29.16
2023-06-14T13:39:56.451Z,28.79
2023-06-14T13:42:23.185Z,28.68
2023-06-14T13:44:49.825Z,28.57
2023-06-14T13:47:17.069Z,28.62
2023-06-14T13:49:43.757Z,28.55
2023-06-14T13:52:10.475Z,28.36
2023-06-14T13:54:37.700Z,28.57
2023-06-14T13:57:04.383Z,28.69
2023-06-14T13:59:30.998Z,28.73
2023-06-14T14:01:58.126Z,28.58
2023-06-14T14:04:24.937Z,28.59
2023-06-14T14:06:51.561Z,28.46
2023-06-14T14:09:18.570Z,28.42
2023-06-14T14:11:45.146Z,28.29
2023-06-14T14:14:11.842Z,28.25
2023-06-14T14:16:38.938Z,28.25
2023-06-14T14:19:05.777Z,28.37
2023-06-14T14:21:32.561Z,28.42
2023-06-14T14:24:00.092Z,28.35
2023-06-14T14:26:27.001Z,28.12
2023-06-14T14:28:53.517Z,28.33
2023-06-14T14:31:20.259Z,28.14
2023-06-14T14:33:46.895Z,28.19
2023-06-14T14:36:14.676Z,27.91
2023-06-14T14:38:41.316Z,27.90
2023-06-14T14:41:07.857Z,27.98
2023-06-14T14:43:34.576Z,27.65
2023-06-14T14:46:01.196Z,27.60
2023-06-14T14:48:27.862Z,27.78
2023-06-14T14:50:54.439Z,27.94
2023-06-14T14:53:21.041Z,27.93
2023-06-14T14:55:47.834Z,27.88
2023-06-14T14:58:18.177Z,27.86
2023-06-14T15:00:46.959Z,27.77
2023-06-14T15:03:14.011Z,27.71
2023-06-14T15:05:41.133Z,27.52
2023-06-14T15:08:13.855Z,27.52
2023-06-14T15:10:42.634Z,27.54
2023-06-14T15:13:09.508Z,27.56
2023-06-14T15:15:37.335Z,27.59
2023-06-14T15:18:04.159Z,27.58
2023-06-14T15:20:31.137Z,27.47
2023-06-14T15:23:00.690Z,27.33
2023-06-14T15:25:31.316Z,27.32
2023-06-14T15:27:57.966Z,27.24
2023-06-14T15:30:24.611Z,27.38
2023-06-14T15:32:51.670Z,27.38
2023-06-14T15:35:22.006Z,27.33
2023-06-14T15:37:49.247Z,27.37
2023-06-14T15:40:17.106Z,27.16
2023-06-14T15:42:44.181Z,27.00
2023-06-14T15:45:11.365Z,26.96
2023-06-14T15:47:38.444Z,26.96
2023-06-14T15:50:08.763Z,26.94
2023-06-14T15:52:35.885Z,26.94
2023-06-14T15:55:03.243Z,26.87
2023-06-14T15:57:30.508Z,26.83
2023-06-14T15:59:57.096Z,26.77
2023-06-14T16:02:23.763Z,26.71
2023-06-14T16:04:51.496Z,26.75
2023-06-14T16:07:19.598Z,26.69
2023-06-14T16:09:46.167Z,26.55
2023-06-14T16:12:14.157Z,26.58
2023-06-14T16:14:40.797Z,26.39
2023-06-14T16:17:07.621Z,26.42
2023-06-14T16:19:34.339Z,26.38
2023-06-14T16:22:01.312Z,26.32
2023-06-14T16:24:28.188Z,26.31
2023-06-14T16:26:55.318Z,26.23
2023-06-14T16:29:22.254Z,26.13
2023-06-14T16:31:48.926Z,26.08
2023-06-14T16:34:16.800Z,26.03
2023-06-14T16:36:44.869Z,25.96
2023-06-14T16:39:12.921Z,25.90
2023-06-14T16:41:39.629Z,25.86
2023-06-14T16:44:06.195Z,25.75
2023-06-14T16:46:34.038Z,25.69
2023-06-14T16:49:01.753Z,25.70
2023-06-14T16:51:28.637Z,25.60
2023-06-14T16:53:56.345Z,25.53
2023-06-14T16:56:27.823Z,25.55
2023-06-14T16:59:00.861Z,25.50
2023-06-14T17:01:30.558Z,25.50
2023-06-14T17:03:57.231Z,25.45
2023-06-14T17:06:25.223Z,25.38
2023-06-14T17:08:53.611Z,25.36
2023-06-14T17:11:23.485Z,25.27
2023-06-14T17:13:51.029Z,25.25
2023-06-14T17:16:17.786Z,25.22
2023-06-14T17:18:44.394Z,25.05
2023-06-14T17:21:11.076Z,24.97
2023-06-14T17:23:37.672Z,25.01
2023-06-14T17:26:04.299Z,24.97
2023-06-14T17:28:30.833Z,24.95
2023-06-14T17:30:57.439Z,24.86
2023-06-14T17:33:24.068Z,24.75
2023-06-14T17:35:50.968Z,24.74
2023-06-14T17:38:17.747Z,24.71
2023-06-14T17:40:50.749Z,24.61
2023-06-14T17:43:18.096Z,24.50
2023-06-14T17:45:44.772Z,24.50
2023-06-14T17:48:11.448Z,24.42
2023-06-14T17:50:40.195Z,24.34
2023-06-14T17:53:07.627Z,24.27
2023-06-14T17:55:37.302Z,24.20
2023-06-14T17:58:05.101Z,24.18
2023-06-14T18:00:31.833Z,24.10
2023-06-14T18:02:59.762Z,24.10
2023-06-14T18:05:32.891Z,23.99
2023-06-14T18:07:59.500Z,24.01
2023-06-14T18:10:26.519Z,23.95
2023-06-14T18:12:53.128Z,23.83
2023-06-14T18:15:19.862Z,23.71
2023-06-14T18:17:46.504Z,23.59
2023-06-14T18:20:13.229Z,23.51
2023-06-14T18:22:39.903Z,23.44
2023-06-14T18:25:06.770Z,23.40
2023-06-14T18:27:33.435Z,23.31
2023-06-14T18:30:00.053Z,23.26
2023-06-14T18:32:31.203Z,23.24
2023-06-14T18:34:58.044Z,23.17
2023-06-14T18:37:25.950Z,23.08
2023-06-14T18:39:54.590Z,22.97
2023-06-14T18:42:23.420Z,22.83
2023-06-14T18:44:50.430Z,22.83
2023-06-14T18:47:17.138Z,22.70
2023-06-14T18:49:43.785Z,22.57
2023-06-14T18:52:10.915Z,22.45
2023-06-14T18:54:37.469Z,22.32
2023-06-14T18:57:04.382Z,22.23
2023-06-14T18:59:30.980Z,22.17
2023-06-14T19:01:57.624Z,22.07
2023-06-14T19:04:24.495Z,21.99
2023-06-14T19:06:51.522Z,21.96
2023-06-14T19:09:21.172Z,21.84
2023-06-14T19:11:48.615Z,21.73
2023-06-14T19:14:15.953Z,21.51
2023-06-14T19:16:42.850Z,21.43
2023-06-14T19:19:09.702Z,21.30
2023-06-14T19:21:36.488Z,21.12
2023-06-14T19:24:03.380Z,21.02
2023-06-14T19:26:31.865Z,20.84
2023-06-14T19:28:58.862Z,20.74
2023-06-14T19:31:26.366Z,20.62
2023-06-14T19:34:01.169Z,20.46
2023-06-14T19:36:27.937Z,20.36
2023-06-14T19:38:54.687Z,20.12
2023-06-14T19:41:21.896Z,19.96
2023-06-14T19:43:48.710Z,19.76
2023-06-14T19:46:17.990Z,19.73
2023-06-14T19:48:48.926Z,19.47
2023-06-14T19:51:15.786Z,19.32
2023-06-14T19:53:42.486Z,19.21
2023-06-14T19:56:09.698Z,18.99
2023-06-14T19:58:36.348Z,18.78
2023-06-14T20:01:03.022Z,18.69
2023-06-14T20:03:29.875Z,18.63
2023-06-14T20:05:56.802Z,18.52
2023-06-14T20:08:26.590Z,18.50
2023-06-14T20:10:53.899Z,18.49
2023-06-14T20:13:20.909Z,18.45
2023-06-14T20:15:47.667Z,18.33
2023-06-14T20:18:14.566Z,18.34
2023-06-14T20:20:42.843Z,18.37
2023-06-14T20:23:09.598Z,18.29
2023-06-14T20:25:36.282Z,18.29
2023-06-14T20:28:07.368Z,18.13
2023-06-14T20:30:34.195Z,18.11
2023-06-14T20:33:00.954Z,18.05
2023-06-14T20:35:28.244Z,17.92
2023-06-14T20:37:54.967Z,17.95
2023-06-14T20:40:26.325Z,17.89
2023-06-14T20:42:58.379Z,17.95
2023-06-14T20:45:28.325Z,17.81
2023-06-14T20:48:01.268Z,17.65
2023-06-14T20:50:28.203Z,17.74
2023-06-14T20:52:55.056Z,17.69
2023-06-14T20:55:21.815Z,17.64
2023-06-14T20:57:49.248Z,17.62
2023-06-14T21:00:17.111Z,17.58
2023-06-14T21:02:44.170Z,17.52
2023-06-14T21:05:11.366Z,17.34
2023-06-14T21:07:38.161Z,17.16
2023-06-14T21:10:06.087Z,17.04
2023-06-14T21:12:32.902Z,17.05
2023-06-14T21:15:01.922Z,16.91
2023-06-14T21:17:31.261Z,16.74
2023-06-14T21:20:00.897Z,16.57
2023-06-14T21:22:27.587Z,16.53
2023-06-14T21:24:54.276Z,16.50
2023-06-14T21:27:21.091Z,16.29
2023-06-14T21:29:47.885Z,16.26
2023-06-14T21:32:14.614Z,16.24
2023-06-14T21:34:43.952Z,16.14
2023-06-14T21:37:13.709Z,15.92
2023-06-14T21:39:41.255Z,15.97
2023-06-14T21:42:08.462Z,15.90
2023-06-14T21:44:41.513Z,15.70
2023-06-14T21:47:09.598Z,15.73
2023-06-14T21:49:36.301Z,15.62
2023-06-14T21:52:03.880Z,15.55
2023-06-14T21:54:31.375Z,15.48
2023-06-14T21:56:58.177Z,15.43
2023-06-14T21:59:24.776Z,15.23
2023-06-14T22:01:51.890Z,15.35
2023-06-14T22:04:21.205Z,15.26
2023-06-14T22:06:48.131Z,15.16
2023-06-14T22:09:16.130Z,15.03
2023-06-14T22:11:44.986Z,15.04
2023-06-14T22:14:13.317Z,15.13
2023-06-14T22:16:40.492Z,15.05
2023-06-14T22:19:09.440Z,14.94
2023-06-14T22:21:36.254Z,14.85
2023-06-14T22:24:04.515Z,14.78
2023-06-14T22:26:40.451Z,14.75
2023-06-14T22:29:07.605Z,14.69
2023-06-14T22:31:38.409Z,14.62
2023-06-14T22:34:10.023Z,14.57
2023-06-14T22:36:38.968Z,14.59
2023-06-14T22:39:06.132Z,14.44
2023-06-14T22:41:38.496Z,14.35
2023-06-14T22:44:06.127Z,14.40
2023-06-14T22:46:34.324Z,14.26
2023-06-14T22:49:02.975Z,14.26
2023-06-14T22:51:32.327Z,14.29
2023-06-14T22:53:59.610Z,14.27
2023-06-14T22:56:27.052Z,14.15
2023-06-14T22:58:58.525Z,14.12
2023-06-14T23:01:28.099Z,14.04
2023-06-14T23:04:01.726Z,14.00
2023-06-14T23:06:28.722Z,13.89
2023-06-14T23:08:57.041Z,13.96
2023-06-14T23:11:24.329Z,13.84
2023-06-14T23:13:57.735Z,13.96
2023-06-14T23:16:38.147Z,13.88
2023-06-14T23:19:13.195Z,13.84
2023-06-14T23:21:40.478Z,13.70
2023-06-14T23:24:13.205Z,13.72
2023-06-14T23:26:42.237Z,13.65
2023-06-14T23:29:09.511Z,13.68
2023-06-14T23:31:36.379Z,13.67
2023-06-14T23:34:04.780Z,13.57
2023-06-14T23:36:33.993Z,13.61
2023-06-14T23:39:11.830Z,13.53
2023-06-14T23:41:42.076Z,13.60
2023-06-14T23:44:13.116Z,13.44
2023-06-14T23:46:41.393Z,13.42
2023-06-14T23:49:10.968Z,13.53
2023-06-14T23:51:38.818Z,13.38
2023-06-14T23:54:10.026Z,13.38
2023-06-14T23:56:40.823Z,13.43
2023-06-14T23:59:07.761Z,13.28
